Time;durP1;ratioP1;P1;durP2;ratioP2;P2;SDS_P1;SDS_P2;PMS_P1;PMS_P2;Temp;Humidity;BMP_temperature;BMP_pressure;BME280_temperature;BME280_humidity;BME280_pressure;Samples;Min_cycle;Max_cycle;Signal;HPM_P1;HPM_P2
2023/03/29 00:00:06;;;;;;;0.40;0.40;;;6.90;99.90;;;;;;4994687;28;20202;-48
2023/03/29 00:02:34;;;;;;;0.43;0.20;;;6.80;99.90;;;;;;4992543;28;20236;-49
2023/03/29 00:05:03;;;;;;;4.60;0.27;;;6.90;99.90;;;;;;4988851;28;20282;-48
2023/03/29 00:07:32;;;;;;;0.70;0.30;;;6.90;99.90;;;;;;4994222;28;20303;-48
2023/03/29 00:10:01;;;;;;;0.37;0.20;;;6.90;99.90;;;;;;4992486;28;20234;-47
2023/03/29 00:12:28;;;;;;;0.30;0.30;;;6.90;99.90;;;;;;4993125;28;20236;-48
2023/03/29 00:14:55;;;;;;;1.67;0.43;;;6.80;99.90;;;;;;4990188;28;20202;-48
2023/03/29 00:17:23;;;;;;;0.23;0.23;;;6.80;99.90;;;;;;4994176;28;20552;-48
2023/03/29 00:19:50;;;;;;;2.33;0.30;;;6.80;99.90;;;;;;4993726;28;20209;-49
2023/03/29 00:22:17;;;;;;;0.63;0.30;;;6.80;99.90;;;;;;4991520;28;20313;-49
2023/03/29 00:24:46;;;;;;;1.07;0.40;;;6.80;99.90;;;;;;4990609;28;20211;-49
2023/03/29 00:27:15;;;;;;;0.23;0.23;;;6.80;99.90;;;;;;4994041;28;20280;-47
2023/03/29 00:29:42;;;;;;;0.73;0.30;;;6.80;99.90;;;;;;4991455;28;20299;-49
2023/03/29 00:32:09;;;;;;;0.20;0.20;;;6.80;99.90;;;;;;4992225;28;20712;-48
2023/03/29 00:34:36;;;;;;;0.37;0.20;;;6.80;99.90;;;;;;4992994;28;20668;-50
2023/03/29 00:37:07;;;;;;;0.37;0.37;;;6.80;99.90;;;;;;4993072;28;20198;-49
2023/03/29 00:39:34;;;;;;;0.30;0.23;;;6.80;99.90;;;;;;4992011;28;20786;-47
2023/03/29 00:42:02;;;;;;;0.30;0.30;;;6.80;99.90;;;;;;4993220;28;20283;-48
2023/03/29 00:45:00;;;;;;;0.30;0.30;;;6.80;99.90;;;;;;4992489;28;20253;-48
2023/03/29 00:47:31;;;;;;;0.23;0.20;;;6.80;99.90;;;;;;4990891;28;20232;-48
2023/03/29 00:50:02;;;;;;;0.20;0.20;;;6.80;99.90;;;;;;4982711;28;20288;-48
2023/03/29 00:52:31;;;;;;;2.10;0.30;;;6.70;99.90;;;;;;4994955;28;20228;-48
2023/03/29 00:55:04;;;;;;;0.30;0.30;;;6.60;99.90;;;;;;4992613;28;20201;-48
2023/03/29 00:57:32;;;;;;;0.10;0.10;;;6.60;99.90;;;;;;4997474;28;20288;-49
2023/03/29 01:00:04;;;;;;;1.63;0.30;;;6.50;99.90;;;;;;4998865;28;20272;-48
2023/03/29 01:02:33;;;;;;;1.03;0.10;;;6.50;99.90;;;;;;5001698;28;20599;-48
2023/03/29 01:05:07;;;;;;;0.53;0.30;;;6.40;99.90;;;;;;4995208;28;20205;-48
2023/03/29 01:07:40;;;;;;;0.67;0.20;;;6.40;99.90;;;;;;4994070;28;20319;-47
2023/03/29 01:10:11;;;;;;;0.30;0.30;;;6.40;99.90;;;;;;4995828;28;20282;-48
2023/03/29 01:12:43;;;;;;;0.10;0.10;;;6.40;99.90;;;;;;4997450;28;20226;-48
2023/03/29 01:15:13;;;;;;;0.20;0.20;;;6.40;99.90;;;;;;4995980;28;20292;-47
2023/03/29 01:17:42;;;;;;;0.20;0.20;;;6.40;99.90;;;;;;4997323;28;20198;-49
2023/03/29 01:20:16;;;;;;;0.17;0.17;;;6.40;99.90;;;;;;4998480;28;20202;-48
2023/03/29 01:22:59;;;;;;;1.43;0.20;;;6.40;99.90;;;;;;4998807;28;20768;-48
2023/03/29 01:25:36;;;;;;;0.10;0.10;;;6.50;99.90;;;;;;5002985;28;20203;-48
2023/03/29 01:28:08;;;;;;;0.40;0.40;;;6.70;99.90;;;;;;4995381;28;20226;-49
2023/03/29 01:30:42;;;;;;;1.17;0.20;;;6.70;99.90;;;;;;4992875;28;20201;-49
2023/03/29 01:33:12;;;;;;;0.20;0.20;;;6.70;99.90;;;;;;4993255;28;20231;-49
2023/03/29 01:35:43;;;;;;;0.30;0.30;;;6.60;99.90;;;;;;4991030;28;20216;-49
2023/03/29 01:38:14;;;;;;;0.87;0.30;;;6.70;99.90;;;;;;4993176;28;20199;-48
2023/03/29 01:40:41;;;;;;;0.87;0.87;;;6.60;99.90;;;;;;4993213;28;20208;-48
2023/03/29 01:43:21;;;;;;;1.23;0.30;;;6.60;99.90;;;;;;4992657;28;20676;-47
2023/03/29 01:45:55;;;;;;;2.67;0.30;;;6.50;99.90;;;;;;4991363;28;20214;-48
2023/03/29 01:48:27;;;;;;;1.13;0.10;;;6.50;99.90;;;;;;4990793;28;20223;-49
2023/03/29 01:50:58;;;;;;;1.10;0.20;;;6.50;99.90;;;;;;4989857;28;20638;-48
2023/03/29 01:53:30;;;;;;;0.10;0.10;;;6.40;99.90;;;;;;4991522;28;20228;-48
2023/03/29 01:56:06;;;;;;;0.73;0.13;;;6.40;99.90;;;;;;4990954;28;20209;-49
2023/03/29 01:58:38;;;;;;;0.40;0.20;;;6.30;99.90;;;;;;4991548;28;20213;-47
2023/03/29 02:01:09;;;;;;;0.13;0.10;;;6.30;99.90;;;;;;4990803;28;20205;-47
2023/03/29 02:03:41;;;;;;;0.20;0.20;;;6.30;99.90;;;;;;4992168;28;20233;-48
2023/03/29 02:06:10;;;;;;;0.10;0.10;;;6.30;99.90;;;;;;4991623;28;20832;-47
2023/03/29 02:08:39;;;;;;;0.00;0.00;;;6.10;99.90;;;;;;4992414;28;20256;-48
2023/03/29 02:11:07;;;;;;;1.13;0.20;;;6.10;99.90;;;;;;4991718;28;20554;-48
2023/03/29 02:13:36;;;;;;;0.20;0.20;;;6.10;99.90;;;;;;4989581;28;20308;-48
2023/03/29 02:16:08;;;;;;;3.80;0.33;;;6.10;99.90;;;;;;4991440;28;20694;-48
2023/03/29 02:18:36;;;;;;;1.43;0.20;;;6.10;99.90;;;;;;4992137;28;20249;-48
2023/03/29 02:21:03;;;;;;;0.57;0.27;;;6.20;99.90;;;;;;4991270;28;20735;-48
2023/03/29 02:23:35;;;;;;;0.37;0.30;;;6.30;99.90;;;;;;4991985;28;20639;-48
2023/03/29 02:26:05;;;;;;;1.70;0.10;;;6.30;99.90;;;;;;4990238;28;20207;-48
2023/03/29 02:28:33;;;;;;;1.53;0.20;;;6.20;99.90;;;;;;4992081;28;20600;-48
2023/03/29 02:31:07;;;;;;;0.40;0.40;;;6.20;99.90;;;;;;4991990;28;20293;-49
2023/03/29 02:33:40;;;;;;;0.27;0.27;;;6.20;99.90;;;;;;4991883;28;20232;-48
2023/03/29 02:36:12;;;;;;;0.30;0.30;;;6.10;99.90;;;;;;4990065;28;20203;-49
2023/03/29 02:38:40;;;;;;;0.20;0.20;;;6.10;99.90;;;;;;4990064;28;20201;-48
2023/03/29 02:41:08;;;;;;;0.70;0.30;;;6.10;99.90;;;;;;4991039;28;20210;-49
2023/03/29 02:43:36;;;;;;;0.73;0.37;;;6.10;99.90;;;;;;4990546;28;20267;-48
2023/03/29 02:46:06;;;;;;;0.30;0.30;;;6.10;99.90;;;;;;4991180;28;20643;-49
2023/03/29 02:48:36;;;;;;;0.43;0.43;;;6.10;99.90;;;;;;4992155;28;20220;-48
2023/03/29 02:51:09;;;;;;;0.20;0.20;;;6.10;99.90;;;;;;4990926;28;20260;-48
2023/03/29 02:53:42;;;;;;;0.73;0.20;;;6.10;99.90;;;;;;4990076;28;22177;-48
2023/03/29 02:56:09;;;;;;;0.20;0.20;;;6.10;99.90;;;;;;4990866;28;20240;-48
2023/03/29 02:58:37;;;;;;;4.10;0.20;;;6.10;99.90;;;;;;4992265;28;20214;-47
2023/03/29 03:01:07;;;;;;;1.50;0.33;;;6.10;99.90;;;;;;4991884;28;20409;-49
2023/03/29 03:03:34;;;;;;;0.23;0.20;;;6.10;99.90;;;;;;5013972;23;20234;-47
2023/03/29 03:06:01;;;;;;;0.20;0.20;;;6.20;99.90;;;;;;4992120;28;20225;-47
2023/03/29 03:08:28;;;;;;;0.70;0.10;;;6.20;99.90;;;;;;4991049;28;20312;-47
2023/03/29 03:10:55;;;;;;;0.63;0.20;;;6.10;99.90;;;;;;4992312;28;20250;-46
2023/03/29 03:13:22;;;;;;;0.40;0.30;;;6.10;99.90;;;;;;4992564;28;20273;-46
2023/03/29 03:15:49;;;;;;;0.40;0.30;;;6.10;99.90;;;;;;4989194;28;20210;-47
2023/03/29 03:18:18;;;;;;;0.50;0.50;;;6.10;99.90;;;;;;4986578;28;20726;-48
2023/03/29 03:20:55;;;;;;;0.20;0.20;;;6.10;99.90;;;;;;4992100;28;20252;-47
2023/03/29 03:23:22;;;;;;;0.10;0.10;;;6.20;99.90;;;;;;4992228;28;20231;-45
2023/03/29 03:25:51;;;;;;;0.47;0.20;;;6.20;99.90;;;;;;4990472;28;20210;-45
2023/03/29 03:28:18;;;;;;;0.83;0.20;;;6.20;99.90;;;;;;4987199;28;20312;-47
2023/03/29 03:30:45;;;;;;;0.23;0.20;;;6.10;99.90;;;;;;4990465;28;20565;-46
2023/03/29 03:33:12;;;;;;;1.90;0.30;;;6.10;99.90;;;;;;4990851;28;20236;-46
2023/03/29 03:35:41;;;;;;;0.90;0.30;;;6.10;99.90;;;;;;4991305;28;20629;-46
2023/03/29 03:38:09;;;;;;;0.73;0.30;;;6.10;99.90;;;;;;4992243;28;20672;-47
2023/03/29 03:40:37;;;;;;;0.50;0.20;;;6.10;99.90;;;;;;4989613;28;20235;-48
2023/03/29 03:43:05;;;;;;;1.37;0.20;;;6.00;99.90;;;;;;4991175;28;20751;-46
2023/03/29 03:45:33;;;;;;;0.70;0.20;;;6.00;99.90;;;;;;4989883;28;20680;-46
2023/03/29 03:48:03;;;;;;;0.53;0.33;;;6.00;99.90;;;;;;4990640;28;20218;-47
2023/03/29 03:50:30;;;;;;;0.20;0.20;;;5.90;99.90;;;;;;4994547;28;20205;-47
2023/03/29 03:52:58;;;;;;;0.80;0.20;;;5.90;99.90;;;;;;4991603;28;20697;-45
2023/03/29 03:55:28;;;;;;;2.07;0.40;;;5.90;99.90;;;;;;4988767;28;20296;-45
2023/03/29 03:57:56;;;;;;;0.20;0.20;;;5.90;99.90;;;;;;4996351;28;20205;-47
2023/03/29 04:00:23;;;;;;;0.63;0.20;;;5.90;99.90;;;;;;4995386;28;20574;-47
2023/03/29 04:02:53;;;;;;;0.70;0.40;;;5.90;99.90;;;;;;4994483;28;20719;-48
2023/03/29 04:05:20;;;;;;;2.00;0.53;;;5.90;99.90;;;;;;4994460;28;20214;-47
2023/03/29 04:07:47;;;;;;;0.70;0.50;;;5.90;99.90;;;;;;4995240;28;20221;-47
2023/03/29 04:10:16;;;;;;;0.57;0.53;;;5.90;99.90;;;;;;4992189;28;20210;-46
2023/03/29 04:12:43;;;;;;;0.50;0.50;;;5.90;99.90;;;;;;4988480;28;20222;-47
2023/03/29 04:15:10;;;;;;;0.20;0.20;;;5.90;99.90;;;;;;4992768;28;20220;-48
2023/03/29 04:17:37;;;;;;;0.67;0.30;;;5.90;99.90;;;;;;4995037;28;20204;-48
2023/03/29 04:20:10;;;;;;;0.30;0.20;;;5.90;99.90;;;;;;4994327;28;20264;-48
2023/03/29 04:22:37;;;;;;;1.70;0.50;;;5.90;99.90;;;;;;4993943;28;20222;-48
2023/03/29 04:25:05;;;;;;;1.20;0.37;;;5.90;99.90;;;;;;4992044;28;20232;-50
2023/03/29 04:27:33;;;;;;;2.80;0.70;;;5.90;99.90;;;;;;4994540;28;20736;-46
2023/03/29 04:30:00;;;;;;;0.30;0.30;;;6.00;99.90;;;;;;4994534;28;20265;-49
2023/03/29 04:32:27;;;;;;;1.00;0.87;;;6.00;99.90;;;;;;4993936;28;20305;-49
2023/03/29 04:34:54;;;;;;;3.20;1.77;;;6.00;99.90;;;;;;4993206;28;20292;-46
2023/03/29 04:37:21;;;;;;;2.10;1.13;;;6.10;99.90;;;;;;4994732;28;20206;-46
2023/03/29 04:39:49;;;;;;;0.57;0.30;;;6.10;99.90;;;;;;4994688;28;20201;-47
2023/03/29 04:42:17;;;;;;;0.20;0.20;;;6.00;99.90;;;;;;4991464;28;20206;-47
2023/03/29 04:44:45;;;;;;;2.33;0.43;;;6.00;99.90;;;;;;4991009;28;20212;-46
2023/03/29 04:47:13;;;;;;;0.30;0.30;;;6.00;99.90;;;;;;4989982;28;20200;-47
2023/03/29 04:49:40;;;;;;;2.10;0.57;;;6.00;99.90;;;;;;4994272;28;20221;-47
2023/03/29 04:52:08;;;;;;;0.53;0.30;;;6.10;99.90;;;;;;5010379;28;20201;-45
2023/03/29 04:54:36;;;;;;;9.97;0.60;;;6.10;99.90;;;;;;4992261;28;20292;-48
2023/03/29 04:57:03;;;;;;;1.43;1.07;;;6.10;99.90;;;;;;4993725;28;20198;-48
2023/03/29 04:59:31;;;;;;;0.53;0.40;;;6.00;99.90;;;;;;4989171;28;20201;-47
2023/03/29 05:01:59;;;;;;;0.23;0.20;;;6.00;99.90;;;;;;4988304;28;20213;-47
2023/03/29 05:04:27;;;;;;;0.43;0.43;;;6.00;99.90;;;;;;4992607;28;20240;-47
2023/03/29 05:06:56;;;;;;;0.77;0.43;;;6.10;99.90;;;;;;4990703;28;20304;-45
2023/03/29 05:09:24;;;;;;;1.00;0.50;;;6.20;99.90;;;;;;4991238;28;20219;-46
2023/03/29 05:11:51;;;;;;;0.97;0.20;;;6.20;99.90;;;;;;4991768;28;20790;-47
2023/03/29 05:14:18;;;;;;;1.17;0.20;;;6.20;99.90;;;;;;4992242;28;20631;-46
2023/03/29 05:16:45;;;;;;;1.43;0.30;;;6.20;99.90;;;;;;4989293;28;20206;-46
2023/03/29 05:19:14;;;;;;;0.77;0.20;;;6.20;99.90;;;;;;4993627;28;20201;-47
2023/03/29 05:21:41;;;;;;;0.67;0.30;;;6.30;99.90;;;;;;4989490;28;20222;-48
2023/03/29 05:24:08;;;;;;;0.60;0.30;;;6.30;99.90;;;;;;4992229;28;20221;-48
2023/03/29 05:26:35;;;;;;;2.20;0.40;;;6.30;99.90;;;;;;4990255;28;20217;-47
2023/03/29 05:29:03;;;;;;;1.17;0.50;;;6.30;99.90;;;;;;4992634;28;20222;-50
2023/03/29 05:31:31;;;;;;;1.23;0.30;;;6.30;99.90;;;;;;4991821;28;20284;-48
2023/03/29 05:33:58;;;;;;;1.83;0.30;;;6.40;99.90;;;;;;4988059;28;20700;-46
2023/03/29 05:36:27;;;;;;;1.60;0.40;;;6.30;99.90;;;;;;4992658;28;20662;-46
2023/03/29 05:38:55;;;;;;;0.77;0.30;;;6.30;99.90;;;;;;4993758;28;20609;-47
2023/03/29 05:41:23;;;;;;;0.57;0.30;;;6.30;99.90;;;;;;4993720;28;20229;-46
2023/03/29 05:43:50;;;;;;;0.57;0.30;;;6.30;99.90;;;;;;4991668;28;20256;-49
2023/03/29 05:46:18;;;;;;;4.43;0.50;;;6.30;99.90;;;;;;4992605;28;20248;-47
2023/03/29 05:48:45;;;;;;;1.57;0.40;;;6.30;99.90;;;;;;4993226;28;20697;-47
2023/03/29 05:51:12;;;;;;;1.80;0.50;;;6.40;99.90;;;;;;5001744;28;20204;-46
2023/03/29 05:53:41;;;;;;;0.57;0.30;;;6.40;99.90;;;;;;4991585;28;20233;-45
2023/03/29 05:56:09;;;;;;;0.53;0.40;;;6.40;99.90;;;;;;4990922;28;20630;-47
2023/03/29 05:58:37;;;;;;;0.50;0.50;;;6.40;99.90;;;;;;4991801;28;20203;-46
2023/03/29 06:01:10;;;;;;;0.30;0.30;;;6.50;99.90;;;;;;4992842;28;20201;-47
2023/03/29 06:03:37;;;;;;;0.67;0.50;;;6.50;99.90;;;;;;4990400;28;20641;-48
2023/03/29 06:06:05;;;;;;;0.87;0.50;;;6.60;99.90;;;;;;4992381;28;20199;-47
2023/03/29 06:08:33;;;;;;;0.37;0.23;;;6.70;99.90;;;;;;4990718;28;20265;-46
2023/03/29 06:11:04;;;;;;;0.60;0.20;;;6.80;99.90;;;;;;4988710;28;20210;-47
2023/03/29 06:13:32;;;;;;;0.60;0.60;;;6.90;99.90;;;;;;4991012;28;20233;-47
2023/03/29 06:16:00;;;;;;;0.30;0.30;;;7.00;99.90;;;;;;4991057;28;20206;-47
2023/03/29 06:18:28;;;;;;;0.40;0.40;;;7.00;99.90;;;;;;4992642;28;20198;-46
2023/03/29 06:20:55;;;;;;;0.50;0.50;;;7.00;99.90;;;;;;4991490;28;20233;-48
2023/03/29 06:23:23;;;;;;;0.63;0.60;;;7.10;99.90;;;;;;4989161;28;20292;-46
2023/03/29 06:25:50;;;;;;;0.70;0.57;;;7.20;99.90;;;;;;4989891;28;20652;-46
2023/03/29 06:28:19;;;;;;;0.37;0.30;;;7.20;99.90;;;;;;4992303;28;20269;-47
2023/03/29 06:30:46;;;;;;;0.40;0.40;;;7.10;99.90;;;;;;4992524;28;20627;-48
2023/03/29 06:33:14;;;;;;;0.30;0.30;;;7.00;99.90;;;;;;4989855;28;20285;-46
2023/03/29 06:35:42;;;;;;;1.03;0.30;;;7.00;99.90;;;;;;4991290;28;20619;-49
2023/03/29 06:38:10;;;;;;;1.37;0.40;;;7.00;99.90;;;;;;4990622;28;20215;-46
2023/03/29 06:40:37;;;;;;;0.30;0.30;;;7.00;99.90;;;;;;4989581;28;20202;-48
2023/03/29 06:43:05;;;;;;;2.37;0.60;;;7.00;99.90;;;;;;4991551;28;20222;-46
2023/03/29 06:45:35;;;;;;;2.23;0.30;;;7.10;99.90;;;;;;4988966;28;20212;-47
2023/03/29 06:48:03;;;;;;;1.03;0.50;;;7.20;99.90;;;;;;4991827;28;20203;-46
2023/03/29 06:50:30;;;;;;;1.27;1.03;;;7.20;99.90;;;;;;4991331;28;20707;-46
2023/03/29 06:52:57;;;;;;;1.43;0.33;;;7.20;99.90;;;;;;4991287;28;20221;-47
2023/03/29 06:55:25;;;;;;;0.30;0.30;;;7.30;99.90;;;;;;4988469;28;20201;-46
2023/03/29 06:57:53;;;;;;;1.23;0.40;;;7.30;99.90;;;;;;4991288;28;20213;-46
2023/03/29 07:00:26;;;;;;;1.43;0.40;;;7.40;99.90;;;;;;4992542;28;20204;-47
2023/03/29 07:02:56;;;;;;;1.63;0.27;;;7.40;99.90;;;;;;4992463;28;20233;-48
2023/03/29 07:05:24;;;;;;;0.30;0.20;;;7.50;99.90;;;;;;4989491;28;20237;-48
2023/03/29 07:07:55;;;;;;;1.33;0.60;;;7.50;99.90;;;;;;4992237;28;20208;-46
2023/03/29 07:10:23;;;;;;;3.53;0.60;;;7.50;99.90;;;;;;4992543;28;20224;-47
2023/03/29 07:12:50;;;;;;;0.83;0.53;;;7.50;99.90;;;;;;4988401;28;20332;-46
2023/03/29 07:15:18;;;;;;;0.80;0.40;;;7.50;99.90;;;;;;4987614;28;20213;-48
2023/03/29 07:17:45;;;;;;;1.30;0.40;;;7.50;99.90;;;;;;4992318;28;20197;-46
2023/03/29 07:20:14;;;;;;;0.30;0.30;;;7.50;99.90;;;;;;4990019;28;20248;-47
2023/03/29 07:22:42;;;;;;;0.70;0.40;;;7.50;99.90;;;;;;4991772;28;20217;-46
2023/03/29 07:25:09;;;;;;;0.30;0.30;;;7.50;99.90;;;;;;4988218;28;20301;-45
2023/03/29 07:27:37;;;;;;;2.53;0.37;;;7.50;99.90;;;;;;4976432;28;20201;-47
2023/03/29 07:30:08;;;;;;;0.37;0.37;;;7.50;99.90;;;;;;4991403;28;20217;-48
2023/03/29 07:32:36;;;;;;;0.90;0.40;;;7.50;99.90;;;;;;4995729;28;20257;-46
2023/03/29 07:35:04;;;;;;;0.70;0.70;;;7.60;99.90;;;;;;4995399;28;20250;-45
2023/03/29 07:37:35;;;;;;;0.40;0.40;;;7.60;99.90;;;;;;5000491;28;20203;-46
2023/03/29 07:40:08;;;;;;;0.40;0.40;;;7.70;99.90;;;;;;5017275;28;20570;-47
2023/03/29 07:42:36;;;;;;;0.93;0.30;;;7.80;99.90;;;;;;4997958;28;20731;-45
2023/03/29 07:45:03;;;;;;;0.43;0.43;;;7.90;99.90;;;;;;5015144;28;20690;-47
2023/03/29 07:47:31;;;;;;;2.67;0.50;;;8.10;99.90;;;;;;5002330;28;20195;-48
2023/03/29 07:49:58;;;;;;;1.70;0.60;;;8.10;99.90;;;;;;5015420;28;20214;-47
2023/03/29 07:52:26;;;;;;;0.50;0.50;;;8.20;99.90;;;;;;5004961;28;20308;-46
2023/03/29 07:54:55;;;;;;;0.83;0.83;;;8.30;99.90;;;;;;4995676;28;20205;-48
2023/03/29 07:57:23;;;;;;;3.70;0.50;;;8.40;99.90;;;;;;4991452;28;20285;-46
2023/03/29 07:59:50;;;;;;;0.43;0.30;;;8.50;99.90;;;;;;4989502;28;20221;-47
2023/03/29 08:02:18;;;;;;;0.35;0.30;;;8.50;99.90;;;;;;4992757;28;20468;-47
2023/03/29 08:04:45;;;;;;;3.90;0.37;;;8.50;99.90;;;;;;4995562;28;20577;-47
2023/03/29 08:07:13;;;;;;;0.50;0.30;;;8.60;99.90;;;;;;4994617;28;20201;-47
2023/03/29 08:09:40;;;;;;;2.13;0.77;;;8.50;99.90;;;;;;4993249;28;20222;-47
2023/03/29 08:12:08;;;;;;;1.50;0.40;;;8.50;99.90;;;;;;4995130;28;20553;-47
2023/03/29 08:14:35;;;;;;;0.40;0.20;;;8.40;99.90;;;;;;4995097;28;20641;-46
2023/03/29 08:17:02;;;;;;;4.33;0.43;;;8.40;99.90;;;;;;4994397;28;20216;-48
2023/03/29 08:19:30;;;;;;;2.43;0.43;;;8.50;99.90;;;;;;4996817;28;20210;-46
2023/03/29 08:21:57;;;;;;;0.40;0.40;;;8.60;99.90;;;;;;4993911;28;20206;-47
2023/03/29 08:24:25;;;;;;;1.23;0.40;;;8.60;99.90;;;;;;4993033;28;20270;-47
2023/03/29 08:26:52;;;;;;;0.40;0.40;;;8.70;99.90;;;;;;4992845;28;20202;-45
2023/03/29 08:29:21;;;;;;;4.33;0.43;;;8.60;99.90;;;;;;4994712;28;20218;-48
2023/03/29 08:31:48;;;;;;;1.50;0.70;;;8.60;99.90;;;;;;4995113;28;20205;-47
2023/03/29 08:34:15;;;;;;;1.13;0.20;;;8.60;99.90;;;;;;4994207;28;20234;-48
2023/03/29 08:36:42;;;;;;;1.07;0.30;;;8.60;99.90;;;;;;4990773;28;20214;-47
2023/03/29 08:39:09;;;;;;;0.20;0.20;;;8.60;99.90;;;;;;4994862;28;20575;-49
2023/03/29 08:41:51;;;;;;;2.40;0.30;;;8.60;99.90;;;;;;4993633;28;20209;-47
2023/03/29 08:44:33;;;;;;;1.10;0.20;;;8.70;99.90;;;;;;4994183;28;20229;-48
2023/03/29 08:47:08;;;;;;;3.50;0.40;;;8.80;99.90;;;;;;4979108;28;20206;-47
2023/03/29 08:49:37;;;;;;;2.03;0.43;;;8.90;99.90;;;;;;4989496;28;20698;-48
2023/03/29 08:52:12;;;;;;;1.50;0.37;;;8.90;99.90;;;;;;4991609;28;20296;-48
2023/03/29 08:54:43;;;;;;;1.60;0.30;;;8.80;99.90;;;;;;4991778;28;20663;-47
2023/03/29 08:57:17;;;;;;;1.63;0.30;;;9.00;99.90;;;;;;4992079;28;20205;-49
2023/03/29 08:59:47;;;;;;;0.53;0.30;;;9.00;99.90;;;;;;4990945;28;20295;-47
2023/03/29 09:02:20;;;;;;;3.03;0.73;;;9.10;99.90;;;;;;4992552;28;20213;-49
2023/03/29 09:04:47;;;;;;;0.80;0.30;;;9.20;99.90;;;;;;4992514;28;20207;-49
2023/03/29 09:07:15;;;;;;;0.60;0.30;;;9.30;99.90;;;;;;4991676;28;20207;-48
2023/03/29 09:09:42;;;;;;;0.70;0.40;;;9.30;99.90;;;;;;4993098;28;20225;-47
2023/03/29 09:12:19;;;;;;;1.40;0.30;;;9.30;99.90;;;;;;4992070;28;20676;-47
2023/03/29 09:14:59;;;;;;;0.20;0.20;;;9.30;99.90;;;;;;4993305;28;20209;-47
2023/03/29 09:17:38;;;;;;;0.67;0.40;;;9.30;99.90;;;;;;4985722;28;20213;-46
2023/03/29 09:20:18;;;;;;;3.30;0.30;;;9.50;99.90;;;;;;4990995;28;20209;-46
2023/03/29 09:22:56;;;;;;;2.10;0.30;;;9.60;99.90;;;;;;4993541;28;20247;-46
2023/03/29 09:25:29;;;;;;;2.87;0.60;;;9.70;99.90;;;;;;4986431;28;20756;-48
2023/03/29 09:28:03;;;;;;;2.93;0.30;;;9.80;99.90;;;;;;4989308;28;20666;-48
2023/03/29 09:30:35;;;;;;;0.83;0.30;;;9.90;99.90;;;;;;4988960;28;20225;-47
2023/03/29 09:33:12;;;;;;;0.40;0.40;;;10.10;99.90;;;;;;4989611;28;20225;-47
2023/03/29 09:35:43;;;;;;;0.87;0.87;;;10.10;99.90;;;;;;4991772;28;20683;-48
2023/03/29 09:38:13;;;;;;;1.50;0.40;;;10.30;99.90;;;;;;4989968;28;20209;-46
2023/03/29 09:40:44;;;;;;;0.40;0.30;;;10.40;99.90;;;;;;4989805;28;20239;-47
2023/03/29 09:43:14;;;;;;;2.00;0.83;;;10.40;99.90;;;;;;4991339;28;20806;-46
2023/03/29 09:45:47;;;;;;;6.23;0.60;;;10.70;99.90;;;;;;4991481;28;20200;-47
2023/03/29 09:48:17;;;;;;;5.73;0.43;;;10.80;99.90;;;;;;4991748;28;20201;-45
2023/03/29 09:50:46;;;;;;;2.63;0.60;;;10.90;99.90;;;;;;4995109;28;20247;-46
2023/03/29 09:53:15;;;;;;;2.37;0.40;;;11.20;99.90;;;;;;4996190;28;20734;-47
2023/03/29 09:55:44;;;;;;;3.50;0.63;;;11.40;99.90;;;;;;4987798;28;20309;-48
2023/03/29 09:58:14;;;;;;;0.30;0.30;;;11.60;99.90;;;;;;4987287;28;20213;-47
2023/03/29 10:00:43;;;;;;;3.43;0.57;;;11.50;99.90;;;;;;4988648;28;20664;-48
2023/03/29 10:03:18;;;;;;;0.30;0.30;;;11.60;99.90;;;;;;4991764;28;20238;-45
2023/03/29 10:05:46;;;;;;;0.40;0.30;;;11.70;99.90;;;;;;4989899;28;20235;-49
2023/03/29 10:08:19;;;;;;;3.70;0.30;;;11.70;99.90;;;;;;4992305;28;20200;-48
2023/03/29 10:10:47;;;;;;;2.40;0.63;;;11.70;99.90;;;;;;4992395;28;20221;-47
2023/03/29 10:13:20;;;;;;;1.83;0.60;;;11.80;99.90;;;;;;4991718;28;20227;-46
2023/03/29 10:16:00;;;;;;;2.10;0.33;;;11.80;99.90;;;;;;4991170;28;20251;-48
2023/03/29 10:18:29;;;;;;;2.17;0.40;;;11.70;99.90;;;;;;4982609;28;20208;-47
2023/03/29 10:20:59;;;;;;;0.60;0.40;;;11.60;99.90;;;;;;4988805;28;20203;-48
2023/03/29 10:23:32;;;;;;;0.97;0.40;;;11.70;99.90;;;;;;4989533;28;20305;-49
2023/03/29 10:25:59;;;;;;;1.75;0.52;;;11.60;99.90;;;;;;4991110;28;20531;-47
2023/03/29 10:28:29;;;;;;;2.97;0.87;;;11.60;99.90;;;;;;4990348;28;20229;-48
2023/03/29 10:31:02;;;;;;;1.33;0.70;;;11.60;99.90;;;;;;4990694;28;20248;-47
2023/03/29 10:33:31;;;;;;;0.60;0.50;;;11.70;99.90;;;;;;4990101;28;20274;-47
2023/03/29 10:35:59;;;;;;;0.87;0.40;;;11.70;99.90;;;;;;4983951;28;20343;-46
2023/03/29 10:38:29;;;;;;;0.77;0.30;;;11.60;99.90;;;;;;4991008;28;20301;-47
2023/03/29 10:41:04;;;;;;;0.70;0.30;;;11.60;99.90;;;;;;4997183;28;20668;-48
2023/03/29 10:43:37;;;;;;;1.07;0.50;;;11.70;99.90;;;;;;4995833;28;20643;-47
2023/03/29 10:46:11;;;;;;;0.40;0.30;;;11.90;99.90;;;;;;4990379;28;20203;-47
2023/03/29 10:48:40;;;;;;;0.97;0.60;;;11.80;99.90;;;;;;4991114;28;20211;-47
2023/03/29 10:51:07;;;;;;;1.13;0.30;;;11.80;99.90;;;;;;4992359;28;20220;-47
2023/03/29 10:53:36;;;;;;;2.63;0.30;;;11.70;99.90;;;;;;5001171;28;20317;-46
2023/03/29 10:56:18;;;;;;;1.23;0.60;;;11.80;99.90;;;;;;5011434;28;20633;-47
2023/03/29 10:59:06;;;;;;;2.93;0.40;;;11.80;99.90;;;;;;4993418;28;20207;-48
2023/03/29 11:01:44;;;;;;;2.33;0.47;;;11.90;99.90;;;;;;4996553;28;20226;-47
2023/03/29 11:04:24;;;;;;;2.25;0.35;;;11.70;99.90;;;;;;4993491;28;20455;-45
2023/03/29 11:07:01;;;;;;;2.17;0.30;;;11.80;99.90;;;;;;4997776;28;20201;-47
2023/03/29 11:09:43;;;;;;;0.20;0.20;;;11.90;99.90;;;;;;4992712;28;20210;-47
2023/03/29 11:12:18;;;;;;;2.60;0.50;;;12.20;99.90;;;;;;4976754;28;20207;-46
2023/03/29 11:14:55;;;;;;;0.80;0.40;;;12.00;99.90;;;;;;4976758;28;20298;-50
2023/03/29 11:17:38;;;;;;;3.03;0.33;;;12.00;99.90;;;;;;4989758;28;20691;-47
2023/03/29 11:20:20;;;;;;;1.87;0.30;;;12.00;99.90;;;;;;4988793;28;20635;-49
2023/03/29 11:22:56;;;;;;;2.37;0.40;;;12.20;99.90;;;;;;4995921;28;20233;-47
2023/03/29 11:25:36;;;;;;;1.37;0.30;;;12.70;99.90;;;;;;4995595;28;20623;-45
2023/03/29 11:28:13;;;;;;;1.57;0.47;;;13.10;99.90;;;;;;4994651;28;20680;-46
2023/03/29 11:30:46;;;;;;;1.20;0.63;;;13.30;99.90;;;;;;4995855;28;20260;-48
2023/03/29 11:33:26;;;;;;;2.57;0.30;;;13.30;99.90;;;;;;4995699;28;20230;-48
2023/03/29 11:36:00;;;;;;;5.33;0.40;;;13.20;99.90;;;;;;4995038;28;20211;-46
2023/03/29 11:38:33;;;;;;;1.13;0.40;;;13.30;99.90;;;;;;4994524;28;20207;-47
2023/03/29 11:41:05;;;;;;;2.80;0.50;;;13.40;99.90;;;;;;4987943;28;20858;-48
2023/03/29 11:43:35;;;;;;;3.13;0.47;;;13.30;99.90;;;;;;4995723;28;20307;-46
2023/03/29 11:46:11;;;;;;;2.43;0.30;;;13.40;99.90;;;;;;4993340;28;20257;-47
2023/03/29 11:48:46;;;;;;;4.73;0.97;;;13.30;99.90;;;;;;4994069;28;20232;-48
2023/03/29 11:51:18;;;;;;;1.50;0.30;;;13.20;99.90;;;;;;4993252;28;20232;-49
2023/03/29 11:53:55;;;;;;;0.30;0.20;;;13.10;99.90;;;;;;4995452;28;20231;-46
2023/03/29 11:56:28;;;;;;;2.77;0.30;;;12.70;99.90;;;;;;4994972;28;20555;-47
2023/03/29 11:59:00;;;;;;;2.77;1.00;;;12.50;99.90;;;;;;4993243;28;20227;-46
2023/03/29 12:01:33;;;;;;;0.40;0.30;;;12.50;99.90;;;;;;4993111;28;20258;-47
2023/03/29 12:04:06;;;;;;;2.33;0.37;;;12.60;99.90;;;;;;4992818;28;20286;-47
2023/03/29 12:06:40;;;;;;;1.40;0.30;;;12.70;99.90;;;;;;4994639;28;20204;-47
2023/03/29 12:09:16;;;;;;;3.13;0.30;;;12.70;99.90;;;;;;4993647;28;20271;-47
2023/03/29 12:11:50;;;;;;;2.43;0.37;;;12.60;99.90;;;;;;4994462;28;20225;-48
2023/03/29 12:14:22;;;;;;;0.57;0.30;;;12.70;99.90;;;;;;4994838;28;20280;-46
2023/03/29 12:16:54;;;;;;;1.60;0.30;;;12.70;99.90;;;;;;4994369;28;20210;-47
2023/03/29 12:19:29;;;;;;;1.57;0.70;;;12.70;99.90;;;;;;4996639;28;20282;-46
2023/03/29 12:21:58;;;;;;;0.47;0.30;;;12.70;99.90;;;;;;4995076;28;20197;-46
2023/03/29 12:24:29;;;;;;;1.87;0.57;;;12.50;99.90;;;;;;4992945;28;20218;-47
2023/03/29 12:27:19;;;;;;;1.30;0.60;;;12.40;99.90;;;;;;4994208;28;20261;-46
2023/03/29 12:30:18;;;;;;;2.23;0.23;;;12.20;99.90;;;;;;4993074;28;20200;-48
2023/03/29 12:33:06;;;;;;;1.67;0.50;;;12.10;99.90;;;;;;4994806;28;20251;-48
2023/03/29 12:35:42;;;;;;;1.70;0.30;;;12.10;99.90;;;;;;4994081;28;20206;-47
2023/03/29 12:38:19;;;;;;;3.53;1.90;;;12.10;99.90;;;;;;4993292;28;20198;-48
2023/03/29 12:40:47;;;;;;;1.10;0.40;;;12.10;99.90;;;;;;4994203;28;20293;-46
2023/03/29 12:43:23;;;;;;;0.83;0.50;;;12.20;99.90;;;;;;4994486;28;20226;-46
2023/03/29 12:45:53;;;;;;;0.73;0.40;;;12.10;99.90;;;;;;4993855;28;20623;-48
2023/03/29 12:48:25;;;;;;;1.77;0.30;;;12.00;99.90;;;;;;4993238;28;20212;-46
2023/03/29 12:50:59;;;;;;;3.07;0.33;;;11.90;99.90;;;;;;4994173;28;20710;-46
2023/03/29 12:53:31;;;;;;;0.70;0.30;;;11.90;99.90;;;;;;4994170;28;20226;-47
2023/03/29 12:56:13;;;;;;;2.50;0.33;;;11.80;99.90;;;;;;4993724;28;20209;-47
2023/03/29 12:59:16;;;;;;;2.33;0.67;;;11.80;99.90;;;;;;4993491;28;20256;-47
2023/03/29 13:01:57;;;;;;;3.57;0.70;;;11.80;99.90;;;;;;4966773;28;20579;-48
2023/03/29 13:04:37;;;;;;;8.07;1.80;;;12.00;99.90;;;;;;4987916;28;20241;-47
2023/03/29 13:07:12;;;;;;;2.40;0.50;;;12.20;99.90;;;;;;4988550;28;20351;-47
2023/03/29 13:09:49;;;;;;;5.27;0.60;;;12.50;99.90;;;;;;4989693;28;20730;-47
2023/03/29 13:12:23;;;;;;;6.50;0.80;;;12.80;99.90;;;;;;4993017;28;20313;-48